sensor_id;sensor_type;location;lat;lon;timestamp;P1;durP1;ratioP1;P2;durP2;ratioP2
22628;SDS011;11481;53.694;9.910;2023-11-22T00:02:16;4.47;;;1.92;;
22628;SDS011;11481;53.694;9.910;2023-11-22T00:04:44;3.03;;;1.83;;
22628;SDS011;11481;53.694;9.910;2023-11-22T00:07:10;5.78;;;2.33;;
22628;SDS011;11481;53.694;9.910;2023-11-22T00:09:37;7.93;;;3.88;;
22628;SDS011;11481;53.694;9.910;2023-11-22T00:12:04;10.20;;;5.72;;
22628;SDS011;11481;53.694;9.910;2023-11-22T00:14:32;11.32;;;4.10;;
22628;SDS011;11481;53.694;9.910;2023-11-22T00:17:01;5.72;;;2.95;;
22628;SDS011;11481;53.694;9.910;2023-11-22T00:19:28;5.25;;;3.50;;
22628;SDS011;11481;53.694;9.910;2023-11-22T00:21:56;8.32;;;4.18;;
22628;SDS011;11481;53.694;9.910;2023-11-22T00:24:23;4.40;;;2.65;;
22628;SDS011;11481;53.694;9.910;2023-11-22T00:26:50;3.08;;;1.70;;
22628;SDS011;11481;53.694;9.910;2023-11-22T00:29:16;3.45;;;2.30;;
22628;SDS011;11481;53.694;9.910;2023-11-22T00:31:43;4.97;;;1.85;;
22628;SDS011;11481;53.694;9.910;2023-11-22T00:34:11;6.05;;;1.90;;
22628;SDS011;11481;53.694;9.910;2023-11-22T00:36:37;4.03;;;1.70;;
22628;SDS011;11481;53.694;9.910;2023-11-22T00:39:04;3.60;;;1.50;;
22628;SDS011;11481;53.694;9.910;2023-11-22T00:41:31;3.42;;;1.77;;
22628;SDS011;11481;53.694;9.910;2023-11-22T00:43:58;5.55;;;2.25;;
22628;SDS011;11481;53.694;9.910;2023-11-22T00:46:25;3.22;;;1.90;;
22628;SDS011;11481;53.694;9.910;2023-11-22T00:48:52;2.00;;;1.38;;
22628;SDS011;11481;53.694;9.910;2023-11-22T00:51:18;6.20;;;2.00;;
22628;SDS011;11481;53.694;9.910;2023-11-22T00:53:45;2.90;;;1.83;;
22628;SDS011;11481;53.694;9.910;2023-11-22T00:56:12;3.95;;;1.75;;
22628;SDS011;11481;53.694;9.910;2023-11-22T00:58:39;3.10;;;1.88;;
22628;SDS011;11481;53.694;9.910;2023-11-22T01:01:07;3.08;;;1.85;;
22628;SDS011;11481;53.694;9.910;2023-11-22T01:03:33;3.38;;;1.75;;
22628;SDS011;11481;53.694;9.910;2023-11-22T01:06:01;3.80;;;2.00;;
22628;SDS011;11481;53.694;9.910;2023-11-22T01:08:28;2.63;;;1.73;;
22628;SDS011;11481;53.694;9.910;2023-11-22T01:10:55;3.25;;;2.08;;
22628;SDS011;11481;53.694;9.910;2023-11-22T01:13:23;2.63;;;1.60;;
22628;SDS011;11481;53.694;9.910;2023-11-22T01:15:50;3.63;;;1.77;;
22628;SDS011;11481;53.694;9.910;2023-11-22T01:18:17;2.80;;;1.70;;
22628;SDS011;11481;53.694;9.910;2023-11-22T01:20:43;4.80;;;1.95;;
22628;SDS011;11481;53.694;9.910;2023-11-22T01:23:11;4.15;;;2.20;;
22628;SDS011;11481;53.694;9.910;2023-11-22T01:25:38;6.38;;;1.92;;
22628;SDS011;11481;53.694;9.910;2023-11-22T01:28:04;5.18;;;1.80;;
22628;SDS011;11481;53.694;9.910;2023-11-22T01:30:32;2.90;;;1.80;;
22628;SDS011;11481;53.694;9.910;2023-11-22T01:32:59;3.03;;;1.88;;
22628;SDS011;11481;53.694;9.910;2023-11-22T01:35:26;4.95;;;2.15;;
22628;SDS011;11481;53.694;9.910;2023-11-22T01:37:53;3.00;;;1.77;;
22628;SDS011;11481;53.694;9.910;2023-11-22T01:40:19;3.53;;;2.20;;
22628;SDS011;11481;53.694;9.910;2023-11-22T01:42:46;3.95;;;2.10;;
22628;SDS011;11481;53.694;9.910;2023-11-22T01:45:13;3.53;;;2.13;;
22628;SDS011;11481;53.694;9.910;2023-11-22T01:47:40;4.60;;;1.63;;
22628;SDS011;11481;53.694;9.910;2023-11-22T01:50:07;4.13;;;2.17;;
22628;SDS011;11481;53.694;9.910;2023-11-22T01:52:35;5.47;;;2.13;;
22628;SDS011;11481;53.694;9.910;2023-11-22T01:55:02;6.15;;;2.30;;
22628;SDS011;11481;53.694;9.910;2023-11-22T01:57:32;4.40;;;2.22;;
22628;SDS011;11481;53.694;9.910;2023-11-22T02:00:02;3.35;;;2.00;;
22628;SDS011;11481;53.694;9.910;2023-11-22T02:02:30;3.03;;;2.00;;
22628;SDS011;11481;53.694;9.910;2023-11-22T02:04:58;3.13;;;2.08;;
22628;SDS011;11481;53.694;9.910;2023-11-22T02:07:26;4.95;;;2.22;;
22628;SDS011;11481;53.694;9.910;2023-11-22T02:09:53;3.80;;;2.03;;
22628;SDS011;11481;53.694;9.910;2023-11-22T02:12:20;3.75;;;1.92;;
22628;SDS011;11481;53.694;9.910;2023-11-22T02:14:47;5.05;;;2.08;;
22628;SDS011;11481;53.694;9.910;2023-11-22T02:17:13;5.75;;;2.58;;
22628;SDS011;11481;53.694;9.910;2023-11-22T02:19:40;5.13;;;2.60;;
22628;SDS011;11481;53.694;9.910;2023-11-22T02:22:07;4.63;;;2.08;;
22628;SDS011;11481;53.694;9.910;2023-11-22T02:24:34;4.07;;;2.45;;
22628;SDS011;11481;53.694;9.910;2023-11-22T02:27:00;4.03;;;2.17;;
22628;SDS011;11481;53.694;9.910;2023-11-22T02:29:27;3.38;;;2.35;;
22628;SDS011;11481;53.694;9.910;2023-11-22T02:31:55;4.53;;;2.45;;
22628;SDS011;11481;53.694;9.910;2023-11-22T02:34:22;4.57;;;2.33;;
22628;SDS011;11481;53.694;9.910;2023-11-22T02:36:48;4.50;;;2.45;;
22628;SDS011;11481;53.694;9.910;2023-11-22T02:39:29;5.18;;;2.60;;
22628;SDS011;11481;53.694;9.910;2023-11-22T02:42:19;4.32;;;2.25;;
22628;SDS011;11481;53.694;9.910;2023-11-22T02:44:45;5.47;;;3.03;;
22628;SDS011;11481;53.694;9.910;2023-11-22T02:47:12;3.85;;;2.30;;
22628;SDS011;11481;53.694;9.910;2023-11-22T02:49:39;5.07;;;2.50;;
22628;SDS011;11481;53.694;9.910;2023-11-22T02:52:05;3.42;;;2.40;;
22628;SDS011;11481;53.694;9.910;2023-11-22T02:54:32;4.55;;;2.50;;
22628;SDS011;11481;53.694;9.910;2023-11-22T02:56:58;4.90;;;2.50;;
22628;SDS011;11481;53.694;9.910;2023-11-22T02:59:26;4.43;;;2.40;;
22628;SDS011;11481;53.694;9.910;2023-11-22T03:01:53;3.47;;;2.53;;
22628;SDS011;11481;53.694;9.910;2023-11-22T03:04:20;5.13;;;2.50;;
22628;SDS011;11481;53.694;9.910;2023-11-22T03:06:46;4.70;;;2.88;;
22628;SDS011;11481;53.694;9.910;2023-11-22T03:09:14;4.45;;;2.50;;
22628;SDS011;11481;53.694;9.910;2023-11-22T03:11:41;4.85;;;2.40;;
22628;SDS011;11481;53.694;9.910;2023-11-22T03:14:08;4.28;;;2.58;;
22628;SDS011;11481;53.694;9.910;2023-11-22T03:16:38;4.45;;;2.53;;
22628;SDS011;11481;53.694;9.910;2023-11-22T03:19:05;4.70;;;2.80;;
22628;SDS011;11481;53.694;9.910;2023-11-22T03:21:32;4.53;;;2.67;;
22628;SDS011;11481;53.694;9.910;2023-11-22T03:24:02;4.57;;;2.88;;
22628;SDS011;11481;53.694;9.910;2023-11-22T03:26:32;3.85;;;2.72;;
22628;SDS011;11481;53.694;9.910;2023-11-22T03:28:58;4.57;;;2.67;;
22628;SDS011;11481;53.694;9.910;2023-11-22T03:31:25;6.88;;;2.95;;
22628;SDS011;11481;53.694;9.910;2023-11-22T03:33:52;6.22;;;2.60;;
22628;SDS011;11481;53.694;9.910;2023-11-22T03:36:20;3.88;;;2.67;;
22628;SDS011;11481;53.694;9.910;2023-11-22T03:38:49;7.38;;;3.10;;
22628;SDS011;11481;53.694;9.910;2023-11-22T03:41:16;4.85;;;2.63;;
22628;SDS011;11481;53.694;9.910;2023-11-22T03:43:45;5.90;;;2.88;;
22628;SDS011;11481;53.694;9.910;2023-11-22T03:46:13;5.95;;;2.20;;
22628;SDS011;11481;53.694;9.910;2023-11-22T03:48:39;8.40;;;2.60;;
22628;SDS011;11481;53.694;9.910;2023-11-22T03:51:06;6.13;;;3.08;;
22628;SDS011;11481;53.694;9.910;2023-11-22T03:53:33;4.10;;;2.55;;
22628;SDS011;11481;53.694;9.910;2023-11-22T03:55:59;4.07;;;2.47;;
22628;SDS011;11481;53.694;9.910;2023-11-22T03:58:26;6.28;;;2.88;;
22628;SDS011;11481;53.694;9.910;2023-11-22T04:00:53;5.60;;;2.78;;
22628;SDS011;11481;53.694;9.910;2023-11-22T04:03:19;5.55;;;3.03;;
22628;SDS011;11481;53.694;9.910;2023-11-22T04:05:46;5.60;;;2.55;;
22628;SDS011;11481;53.694;9.910;2023-11-22T04:08:13;7.35;;;2.90;;
22628;SDS011;11481;53.694;9.910;2023-11-22T04:10:40;5.32;;;2.42;;
22628;SDS011;11481;53.694;9.910;2023-11-22T04:13:06;5.68;;;2.92;;
22628;SDS011;11481;53.694;9.910;2023-11-22T04:15:33;4.07;;;2.47;;
22628;SDS011;11481;53.694;9.910;2023-11-22T04:18:01;5.32;;;2.55;;
22628;SDS011;11481;53.694;9.910;2023-11-22T04:20:28;6.97;;;3.30;;
22628;SDS011;11481;53.694;9.910;2023-11-22T04:22:54;4.95;;;3.05;;
22628;SDS011;11481;53.694;9.910;2023-11-22T04:25:21;5.13;;;2.83;;
22628;SDS011;11481;53.694;9.910;2023-11-22T04:27:48;5.82;;;3.30;;
22628;SDS011;11481;53.694;9.910;2023-11-22T04:30:14;5.60;;;3.00;;
22628;SDS011;11481;53.694;9.910;2023-11-22T04:32:43;5.38;;;2.60;;
22628;SDS011;11481;53.694;9.910;2023-11-22T04:35:10;5.32;;;2.83;;
22628;SDS011;11481;53.694;9.910;2023-11-22T04:37:37;8.05;;;3.33;;
22628;SDS011;11481;53.694;9.910;2023-11-22T04:40:04;5.13;;;2.95;;
22628;SDS011;11481;53.694;9.910;2023-11-22T04:42:34;6.05;;;3.35;;
22628;SDS011;11481;53.694;9.910;2023-11-22T04:45:05;4.82;;;2.78;;
22628;SDS011;11481;53.694;9.910;2023-11-22T04:47:33;10.82;;;2.88;;
22628;SDS011;11481;53.694;9.910;2023-11-22T04:50:00;6.25;;;2.85;;
22628;SDS011;11481;53.694;9.910;2023-11-22T04:52:27;6.10;;;2.83;;
22628;SDS011;11481;53.694;9.910;2023-11-22T04:54:57;4.25;;;2.55;;
22628;SDS011;11481;53.694;9.910;2023-11-22T04:57:24;4.30;;;2.38;;
22628;SDS011;11481;53.694;9.910;2023-11-22T04:59:51;6.07;;;3.08;;
22628;SDS011;11481;53.694;9.910;2023-11-22T05:02:18;6.97;;;2.70;;
22628;SDS011;11481;53.694;9.910;2023-11-22T05:04:45;4.90;;;2.75;;
22628;SDS011;11481;53.694;9.910;2023-11-22T05:07:14;5.38;;;3.10;;
22628;SDS011;11481;53.694;9.910;2023-11-22T05:09:41;4.05;;;2.90;;
22628;SDS011;11481;53.694;9.910;2023-11-22T05:12:11;5.40;;;3.00;;
22628;SDS011;11481;53.694;9.910;2023-11-22T05:14:38;5.38;;;3.25;;
22628;SDS011;11481;53.694;9.910;2023-11-22T05:17:05;5.70;;;3.25;;
22628;SDS011;11481;53.694;9.910;2023-11-22T05:19:32;4.25;;;2.47;;
22628;SDS011;11481;53.694;9.910;2023-11-22T05:21:58;6.00;;;3.05;;
22628;SDS011;11481;53.694;9.910;2023-11-22T05:24:25;7.55;;;3.10;;
22628;SDS011;11481;53.694;9.910;2023-11-22T05:26:52;4.93;;;3.17;;
22628;SDS011;11481;53.694;9.910;2023-11-22T05:29:19;5.93;;;3.22;;
22628;SDS011;11481;53.694;9.910;2023-11-22T05:31:46;4.00;;;2.70;;
22628;SDS011;11481;53.694;9.910;2023-11-22T05:34:12;7.30;;;3.05;;
22628;SDS011;11481;53.694;9.910;2023-11-22T05:36:39;6.20;;;3.55;;
22628;SDS011;11481;53.694;9.910;2023-11-22T05:39:06;5.20;;;3.45;;
22628;SDS011;11481;53.694;9.910;2023-11-22T05:41:33;5.07;;;3.15;;
22628;SDS011;11481;53.694;9.910;2023-11-22T05:43:59;5.97;;;3.30;;
22628;SDS011;11481;53.694;9.910;2023-11-22T05:46:26;7.18;;;3.33;;
22628;SDS011;11481;53.694;9.910;2023-11-22T05:48:53;5.88;;;3.28;;
22628;SDS011;11481;53.694;9.910;2023-11-22T05:51:21;5.65;;;2.97;;
22628;SDS011;11481;53.694;9.910;2023-11-22T05:53:47;6.22;;;3.03;;
22628;SDS011;11481;53.694;9.910;2023-11-22T05:56:14;5.97;;;3.30;;
22628;SDS011;11481;53.694;9.910;2023-11-22T05:58:43;6.22;;;3.05;;
22628;SDS011;11481;53.694;9.910;2023-11-22T06:01:10;6.25;;;3.50;;
22628;SDS011;11481;53.694;9.910;2023-11-22T06:03:40;5.95;;;3.47;;
22628;SDS011;11481;53.694;9.910;2023-11-22T06:06:07;5.10;;;3.33;;
22628;SDS011;11481;53.694;9.910;2023-11-22T06:08:34;5.78;;;3.67;;
22628;SDS011;11481;53.694;9.910;2023-11-22T06:11:01;6.22;;;3.53;;
22628;SDS011;11481;53.694;9.910;2023-11-22T06:13:27;5.43;;;3.15;;
22628;SDS011;11481;53.694;9.910;2023-11-22T06:15:54;4.95;;;2.80;;
22628;SDS011;11481;53.694;9.910;2023-11-22T06:18:21;5.80;;;2.90;;
22628;SDS011;11481;53.694;9.910;2023-11-22T06:20:48;5.07;;;3.38;;
22628;SDS011;11481;53.694;9.910;2023-11-22T06:23:15;6.95;;;3.45;;
22628;SDS011;11481;53.694;9.910;2023-11-22T06:25:41;5.60;;;2.95;;
22628;SDS011;11481;53.694;9.910;2023-11-22T06:28:09;8.80;;;3.78;;
22628;SDS011;11481;53.694;9.910;2023-11-22T06:30:36;6.00;;;3.40;;
22628;SDS011;11481;53.694;9.910;2023-11-22T06:33:03;5.32;;;3.55;;
22628;SDS011;11481;53.694;9.910;2023-11-22T06:35:30;7.22;;;3.55;;
22628;SDS011;11481;53.694;9.910;2023-11-22T06:37:57;7.78;;;4.35;;
22628;SDS011;11481;53.694;9.910;2023-11-22T06:40:23;8.93;;;4.25;;
22628;SDS011;11481;53.694;9.910;2023-11-22T06:42:50;8.70;;;3.80;;
22628;SDS011;11481;53.694;9.910;2023-11-22T06:45:17;7.20;;;3.85;;
22628;SDS011;11481;53.694;9.910;2023-11-22T06:47:45;5.65;;;3.40;;
22628;SDS011;11481;53.694;9.910;2023-11-22T06:50:12;10.43;;;3.55;;
22628;SDS011;11481;53.694;9.910;2023-11-22T06:52:39;5.00;;;3.60;;
22628;SDS011;11481;53.694;9.910;2023-11-22T06:55:06;6.13;;;3.30;;
22628;SDS011;11481;53.694;9.910;2023-11-22T06:57:37;5.57;;;3.25;;
22628;SDS011;11481;53.694;9.910;2023-11-22T07:00:04;5.40;;;3.33;;
22628;SDS011;11481;53.694;9.910;2023-11-22T07:02:32;7.68;;;3.58;;
22628;SDS011;11481;53.694;9.910;2023-11-22T07:04:59;7.07;;;4.10;;
22628;SDS011;11481;53.694;9.910;2023-11-22T07:07:26;5.60;;;3.45;;
22628;SDS011;11481;53.694;9.910;2023-11-22T07:09:52;7.45;;;4.00;;
22628;SDS011;11481;53.694;9.910;2023-11-22T07:12:22;7.28;;;3.97;;
22628;SDS011;11481;53.694;9.910;2023-11-22T07:14:49;9.07;;;4.63;;
22628;SDS011;11481;53.694;9.910;2023-11-22T07:17:16;10.65;;;4.88;;
22628;SDS011;11481;53.694;9.910;2023-11-22T07:19:44;6.60;;;3.85;;
22628;SDS011;11481;53.694;9.910;2023-11-22T07:22:14;9.52;;;3.97;;
22628;SDS011;11481;53.694;9.910;2023-11-22T07:24:46;6.10;;;3.70;;
22628;SDS011;11481;53.694;9.910;2023-11-22T07:27:20;5.72;;;3.45;;
22628;SDS011;11481;53.694;9.910;2023-11-22T07:29:46;7.65;;;3.63;;
22628;SDS011;11481;53.694;9.910;2023-11-22T07:32:13;6.05;;;4.07;;
22628;SDS011;11481;53.694;9.910;2023-11-22T07:34:41;8.20;;;3.58;;
22628;SDS011;11481;53.694;9.910;2023-11-22T07:37:08;6.60;;;3.72;;
22628;SDS011;11481;53.694;9.910;2023-11-22T07:39:35;5.40;;;3.70;;
22628;SDS011;11481;53.694;9.910;2023-11-22T07:42:02;6.70;;;3.75;;
22628;SDS011;11481;53.694;9.910;2023-11-22T07:44:29;6.20;;;3.75;;
22628;SDS011;11481;53.694;9.910;2023-11-22T07:46:59;6.80;;;3.88;;
22628;SDS011;11481;53.694;9.910;2023-11-22T07:49:26;7.55;;;4.18;;
22628;SDS011;11481;53.694;9.910;2023-11-22T07:51:53;5.90;;;3.83;;
22628;SDS011;11481;53.694;9.910;2023-11-22T07:54:19;6.32;;;3.90;;
22628;SDS011;11481;53.694;9.910;2023-11-22T07:56:48;6.35;;;3.88;;
22628;SDS011;11481;53.694;9.910;2023-11-22T07:59:15;6.47;;;3.60;;
22628;SDS011;11481;53.694;9.910;2023-11-22T08:01:42;5.47;;;3.80;;
22628;SDS011;11481;53.694;9.910;2023-11-22T08:04:09;8.85;;;3.55;;
22628;SDS011;11481;53.694;9.910;2023-11-22T08:06:37;7.15;;;3.55;;
22628;SDS011;11481;53.694;9.910;2023-11-22T08:09:04;6.40;;;3.80;;
22628;SDS011;11481;53.694;9.910;2023-11-22T08:11:31;7.35;;;4.22;;
22628;SDS011;11481;53.694;9.910;2023-11-22T08:13:58;8.75;;;3.95;;
22628;SDS011;11481;53.694;9.910;2023-11-22T08:16:25;7.68;;;4.05;;
22628;SDS011;11481;53.694;9.910;2023-11-22T08:18:53;6.70;;;4.30;;
22628;SDS011;11481;53.694;9.910;2023-11-22T08:21:19;9.30;;;4.80;;
22628;SDS011;11481;53.694;9.910;2023-11-22T08:23:46;7.00;;;3.90;;
22628;SDS011;11481;53.694;9.910;2023-11-22T08:26:13;10.75;;;4.93;;
22628;SDS011;11481;53.694;9.910;2023-11-22T08:28:40;7.93;;;4.75;;
22628;SDS011;11481;53.694;9.910;2023-11-22T08:31:07;6.88;;;4.57;;
22628;SDS011;11481;53.694;9.910;2023-11-22T08:33:37;9.23;;;4.65;;
22628;SDS011;11481;53.694;9.910;2023-11-22T08:36:05;10.52;;;4.68;;
22628;SDS011;11481;53.694;9.910;2023-11-22T08:38:32;7.60;;;4.93;;
22628;SDS011;11481;53.694;9.910;2023-11-22T08:41:05;7.07;;;4.43;;
22628;SDS011;11481;53.694;9.910;2023-11-22T08:43:33;9.60;;;4.47;;
22628;SDS011;11481;53.694;9.910;2023-11-22T08:46:01;8.88;;;4.28;;
22628;SDS011;11481;53.694;9.910;2023-11-22T08:48:40;8.65;;;5.13;;
22628;SDS011;11481;53.694;9.910;2023-11-22T08:51:08;12.88;;;7.68;;
22628;SDS011;11481;53.694;9.910;2023-11-22T08:53:36;17.52;;;8.80;;
22628;SDS011;11481;53.694;9.910;2023-11-22T08:56:03;12.13;;;7.88;;
22628;SDS011;11481;53.694;9.910;2023-11-22T08:58:32;11.32;;;6.88;;
22628;SDS011;11481;53.694;9.910;2023-11-22T09:01:00;9.70;;;5.78;;
22628;SDS011;11481;53.694;9.910;2023-11-22T09:03:27;10.55;;;5.47;;
22628;SDS011;11481;53.694;9.910;2023-11-22T09:05:55;10.60;;;4.72;;
22628;SDS011;11481;53.694;9.910;2023-11-22T09:08:22;9.38;;;5.38;;
22628;SDS011;11481;53.694;9.910;2023-11-22T09:10:53;9.43;;;5.85;;
22628;SDS011;11481;53.694;9.910;2023-11-22T09:13:20;10.45;;;6.20;;
22628;SDS011;11481;53.694;9.910;2023-11-22T09:15:48;11.68;;;6.03;;
22628;SDS011;11481;53.694;9.910;2023-11-22T09:18:16;13.07;;;6.68;;
22628;SDS011;11481;53.694;9.910;2023-11-22T09:20:43;12.38;;;7.00;;
22628;SDS011;11481;53.694;9.910;2023-11-22T09:23:12;8.98;;;5.55;;
22628;SDS011;11481;53.694;9.910;2023-11-22T09:25:41;7.28;;;5.03;;
22628;SDS011;11481;53.694;9.910;2023-11-22T09:28:07;11.35;;;5.35;;
22628;SDS011;11481;53.694;9.910;2023-11-22T09:30:35;11.05;;;5.25;;
22628;SDS011;11481;53.694;9.910;2023-11-22T09:33:05;8.15;;;5.85;;
22628;SDS011;11481;53.694;9.910;2023-11-22T09:35:38;8.85;;;5.95;;
22628;SDS011;11481;53.694;9.910;2023-11-22T09:38:06;10.88;;;5.97;;
22628;SDS011;11481;53.694;9.910;2023-11-22T09:40:40;8.50;;;5.45;;
22628;SDS011;11481;53.694;9.910;2023-11-22T09:43:15;8.90;;;5.43;;
22628;SDS011;11481;53.694;9.910;2023-11-22T09:45:48;11.90;;;6.40;;
22628;SDS011;11481;53.694;9.910;2023-11-22T09:48:22;10.02;;;5.85;;
22628;SDS011;11481;53.694;9.910;2023-11-22T09:53:27;12.68;;;5.80;;
22628;SDS011;11481;53.694;9.910;2023-11-22T09:56:14;8.38;;;5.65;;
22628;SDS011;11481;53.694;9.910;2023-11-22T09:58:41;10.20;;;6.60;;
22628;SDS011;11481;53.694;9.910;2023-11-22T10:01:11;12.80;;;7.18;;
22628;SDS011;11481;53.694;9.910;2023-11-22T10:03:39;10.73;;;6.30;;
22628;SDS011;11481;53.694;9.910;2023-11-22T10:06:07;16.42;;;6.97;;
22628;SDS011;11481;53.694;9.910;2023-11-22T10:08:34;13.23;;;7.15;;
22628;SDS011;11481;53.694;9.910;2023-11-22T10:11:03;8.82;;;6.35;;
22628;SDS011;11481;53.694;9.910;2023-11-22T10:13:30;11.48;;;6.80;;
22628;SDS011;11481;53.694;9.910;2023-11-22T10:15:57;11.23;;;7.35;;
22628;SDS011;11481;53.694;9.910;2023-11-22T10:18:45;16.63;;;8.32;;
22628;SDS011;11481;53.694;9.910;2023-11-22T10:23:47;28.25;;;12.73;;
22628;SDS011;11481;53.694;9.910;2023-11-22T10:26:14;15.15;;;8.85;;
22628;SDS011;11481;53.694;9.910;2023-11-22T10:28:42;15.68;;;8.82;;
22628;SDS011;11481;53.694;9.910;2023-11-22T10:31:09;13.93;;;7.60;;
22628;SDS011;11481;53.694;9.910;2023-11-22T10:33:39;18.98;;;9.02;;
22628;SDS011;11481;53.694;9.910;2023-11-22T10:36:08;13.38;;;8.00;;
22628;SDS011;11481;53.694;9.910;2023-11-22T10:38:36;16.48;;;6.75;;
22628;SDS011;11481;53.694;9.910;2023-11-22T10:41:03;17.77;;;6.80;;
22628;SDS011;11481;53.694;9.910;2023-11-22T10:43:34;17.05;;;8.05;;
22628;SDS011;11481;53.694;9.910;2023-11-22T10:46:04;10.48;;;6.53;;
22628;SDS011;11481;53.694;9.910;2023-11-22T10:48:32;11.32;;;6.22;;
22628;SDS011;11481;53.694;9.910;2023-11-22T10:51:03;10.13;;;6.03;;
22628;SDS011;11481;53.694;9.910;2023-11-22T10:53:37;11.70;;;5.93;;
22628;SDS011;11481;53.694;9.910;2023-11-22T10:56:15;9.93;;;5.63;;
22628;SDS011;11481;53.694;9.910;2023-11-22T11:01:17;8.98;;;4.85;;
22628;SDS011;11481;53.694;9.910;2023-11-22T11:03:46;10.05;;;5.15;;
22628;SDS011;11481;53.694;9.910;2023-11-22T11:06:38;9.48;;;5.47;;
22628;SDS011;11481;53.694;9.910;2023-11-22T11:09:05;8.80;;;5.63;;
22628;SDS011;11481;53.694;9.910;2023-11-22T11:11:35;11.05;;;5.15;;
22628;SDS011;11481;53.694;9.910;2023-11-22T11:14:03;10.85;;;5.45;;
22628;SDS011;11481;53.694;9.910;2023-11-22T11:16:33;8.05;;;4.85;;
22628;SDS011;11481;53.694;9.910;2023-11-22T11:19:15;8.70;;;4.78;;
22628;SDS011;11481;53.694;9.910;2023-11-22T11:21:44;6.22;;;3.53;;
22628;SDS011;11481;53.694;9.910;2023-11-22T11:24:11;5.10;;;3.45;;
22628;SDS011;11481;53.694;9.910;2023-11-22T11:26:38;6.15;;;3.70;;
22628;SDS011;11481;53.694;9.910;2023-11-22T11:29:04;5.70;;;3.60;;
22628;SDS011;11481;53.694;9.910;2023-11-22T11:31:33;6.68;;;4.35;;
22628;SDS011;11481;53.694;9.910;2023-11-22T11:34:06;5.82;;;3.65;;
22628;SDS011;11481;53.694;9.910;2023-11-22T11:36:33;4.68;;;3.30;;
22628;SDS011;11481;53.694;9.910;2023-11-22T11:39:05;4.65;;;2.50;;
22628;SDS011;11481;53.694;9.910;2023-11-22T11:41:37;4.47;;;2.53;;
22628;SDS011;11481;53.694;9.910;2023-11-22T11:44:08;4.45;;;2.58;;
22628;SDS011;11481;53.694;9.910;2023-11-22T11:46:36;4.53;;;2.70;;
22628;SDS011;11481;53.694;9.910;2023-11-22T11:49:07;6.70;;;2.20;;
22628;SDS011;11481;53.694;9.910;2023-11-22T11:51:35;3.15;;;1.98;;
22628;SDS011;11481;53.694;9.910;2023-11-22T11:54:02;3.63;;;2.35;;
22628;SDS011;11481;53.694;9.910;2023-11-22T11:56:29;3.95;;;2.60;;
22628;SDS011;11481;53.694;9.910;2023-11-22T11:58:56;3.63;;;2.03;;
22628;SDS011;11481;53.694;9.910;2023-11-22T12:01:29;5.40;;;2.38;;
22628;SDS011;11481;53.694;9.910;2023-11-22T12:04:00;2.42;;;1.55;;
22628;SDS011;11481;53.694;9.910;2023-11-22T12:06:27;2.70;;;1.60;;
22628;SDS011;11481;53.694;9.910;2023-11-22T12:08:55;3.05;;;1.40;;
22628;SDS011;11481;53.694;9.910;2023-11-22T12:11:22;2.55;;;1.30;;
22628;SDS011;11481;53.694;9.910;2023-11-22T12:13:49;5.15;;;1.50;;
22628;SDS011;11481;53.694;9.910;2023-11-22T12:16:17;3.25;;;1.48;;
22628;SDS011;11481;53.694;9.910;2023-11-22T12:18:49;2.83;;;1.60;;
22628;SDS011;11481;53.694;9.910;2023-11-22T12:21:17;2.90;;;1.77;;
22628;SDS011;11481;53.694;9.910;2023-11-22T12:23:45;3.17;;;1.75;;
22628;SDS011;11481;53.694;9.910;2023-11-22T12:26:15;2.88;;;1.60;;
22628;SDS011;11481;53.694;9.910;2023-11-22T12:28:47;8.07;;;2.60;;
22628;SDS011;11481;53.694;9.910;2023-11-22T12:31:29;8.68;;;5.15;;
22628;SDS011;11481;53.694;9.910;2023-11-22T12:34:01;5.25;;;3.25;;
22628;SDS011;11481;53.694;9.910;2023-11-22T12:36:28;3.55;;;2.00;;
22628;SDS011;11481;53.694;9.910;2023-11-22T12:38:56;3.55;;;1.42;;
22628;SDS011;11481;53.694;9.910;2023-11-22T12:41:26;3.50;;;1.90;;
22628;SDS011;11481;53.694;9.910;2023-11-22T12:44:02;2.80;;;1.40;;
22628;SDS011;11481;53.694;9.910;2023-11-22T12:49:16;4.28;;;1.50;;
22628;SDS011;11481;53.694;9.910;2023-11-22T12:51:46;3.05;;;1.45;;
22628;SDS011;11481;53.694;9.910;2023-11-22T12:54:13;2.80;;;1.45;;
22628;SDS011;11481;53.694;9.910;2023-11-22T12:56:40;2.05;;;1.33;;
22628;SDS011;11481;53.694;9.910;2023-11-22T12:59:08;3.70;;;1.45;;
22628;SDS011;11481;53.694;9.910;2023-11-22T13:01:34;1.95;;;1.33;;
22628;SDS011;11481;53.694;9.910;2023-11-22T13:04:01;2.50;;;1.10;;
22628;SDS011;11481;53.694;9.910;2023-11-22T13:06:29;2.97;;;1.25;;
22628;SDS011;11481;53.694;9.910;2023-11-22T13:08:56;1.98;;;1.13;;
22628;SDS011;11481;53.694;9.910;2023-11-22T13:11:23;2.78;;;1.52;;
22628;SDS011;11481;53.694;9.910;2023-11-22T13:13:50;3.83;;;1.10;;
22628;SDS011;11481;53.694;9.910;2023-11-22T13:16:17;3.50;;;1.15;;
22628;SDS011;11481;53.694;9.910;2023-11-22T13:18:45;2.00;;;1.20;;
22628;SDS011;11481;53.694;9.910;2023-11-22T13:21:11;8.30;;;1.60;;
22628;SDS011;11481;53.694;9.910;2023-11-22T13:23:38;4.20;;;1.45;;
22628;SDS011;11481;53.694;9.910;2023-11-22T13:26:05;2.90;;;1.15;;
22628;SDS011;11481;53.694;9.910;2023-11-22T13:28:32;3.03;;;0.90;;
22628;SDS011;11481;53.694;9.910;2023-11-22T13:30:58;1.38;;;1.00;;
22628;SDS011;11481;53.694;9.910;2023-11-22T13:33:25;1.90;;;1.02;;
22628;SDS011;11481;53.694;9.910;2023-11-22T13:35:52;3.25;;;1.10;;
22628;SDS011;11481;53.694;9.910;2023-11-22T13:38:18;1.75;;;1.13;;
22628;SDS011;11481;53.694;9.910;2023-11-22T13:40:45;2.40;;;1.40;;
22628;SDS011;11481;53.694;9.910;2023-11-22T13:43:12;3.45;;;1.27;;
22628;SDS011;11481;53.694;9.910;2023-11-22T13:45:40;3.83;;;1.95;;
22628;SDS011;11481;53.694;9.910;2023-11-22T13:48:08;2.60;;;1.30;;
22628;SDS011;11481;53.694;9.910;2023-11-22T13:50:36;2.25;;;1.17;;
22628;SDS011;11481;53.694;9.910;2023-11-22T13:53:03;2.22;;;1.20;;
22628;SDS011;11481;53.694;9.910;2023-11-22T13:55:30;2.58;;;1.40;;
22628;SDS011;11481;53.694;9.910;2023-11-22T13:57:59;2.90;;;1.80;;
22628;SDS011;11481;53.694;9.910;2023-11-22T14:00:27;4.13;;;1.13;;
22628;SDS011;11481;53.694;9.910;2023-11-22T14:03:00;3.20;;;2.15;;
22628;SDS011;11481;53.694;9.910;2023-11-22T14:05:33;3.65;;;2.30;;
22628;SDS011;11481;53.694;9.910;2023-11-22T14:08:04;4.38;;;1.95;;
22628;SDS011;11481;53.694;9.910;2023-11-22T14:10:32;3.78;;;1.58;;
22628;SDS011;11481;53.694;9.910;2023-11-22T14:12:59;4.80;;;1.40;;
22628;SDS011;11481;53.694;9.910;2023-11-22T14:15:27;3.70;;;1.60;;
22628;SDS011;11481;53.694;9.910;2023-11-22T14:17:57;3.80;;;1.73;;
22628;SDS011;11481;53.694;9.910;2023-11-22T14:20:24;3.70;;;1.67;;
22628;SDS011;11481;53.694;9.910;2023-11-22T14:22:51;2.25;;;1.35;;
22628;SDS011;11481;53.694;9.910;2023-11-22T14:25:19;2.70;;;1.38;;
22628;SDS011;11481;53.694;9.910;2023-11-22T14:27:46;3.63;;;1.25;;
22628;SDS011;11481;53.694;9.910;2023-11-22T14:30:23;3.33;;;1.50;;
22628;SDS011;11481;53.694;9.910;2023-11-22T14:32:53;4.13;;;1.60;;
22628;SDS011;11481;53.694;9.910;2023-11-22T14:35:44;2.58;;;1.58;;
22628;SDS011;11481;53.694;9.910;2023-11-22T14:38:35;2.92;;;1.40;;
22628;SDS011;11481;53.694;9.910;2023-11-22T14:41:02;4.25;;;2.00;;
22628;SDS011;11481;53.694;9.910;2023-11-22T14:43:29;4.78;;;1.65;;
22628;SDS011;11481;53.694;9.910;2023-11-22T14:45:56;5.00;;;1.63;;
22628;SDS011;11481;53.694;9.910;2023-11-22T14:48:22;4.30;;;1.60;;
22628;SDS011;11481;53.694;9.910;2023-11-22T14:50:49;2.33;;;1.42;;
22628;SDS011;11481;53.694;9.910;2023-11-22T14:53:16;3.78;;;1.98;;
22628;SDS011;11481;53.694;9.910;2023-11-22T14:55:42;3.25;;;1.60;;
22628;SDS011;11481;53.694;9.910;2023-11-22T14:58:34;2.22;;;1.27;;
22628;SDS011;11481;53.694;9.910;2023-11-22T15:01:25;3.97;;;1.42;;
22628;SDS011;11481;53.694;9.910;2023-11-22T15:04:44;2.35;;;1.20;;